sensor_id;sensor_type;location;lat;lon;timestamp;pressure;altitude;pressure_sealevel;temperature;humidity
55759;BME280;41678;52.126;20.664;2024-01-10T00:00:42;102187.09;;;-9.64;100.00
55759;BME280;41678;52.126;20.664;2024-01-10T00:06:18;102180.94;;;-9.66;100.00
55759;BME280;41678;52.126;20.664;2024-01-10T00:11:38;102185.13;;;-9.58;100.00
55759;BME280;41678;52.126;20.664;2024-01-10T00:16:57;102175.28;;;-9.55;100.00
55759;BME280;41678;52.126;20.664;2024-01-10T00:22:17;102180.81;;;-9.50;100.00
55759;BME280;41678;52.126;20.664;2024-01-10T00:27:36;102180.22;;;-9.47;100.00
55759;BME280;41678;52.126;20.664;2024-01-10T00:32:55;102165.97;;;-9.45;100.00
55759;BME280;41678;52.126;20.664;2024-01-10T00:38:15;102145.28;;;-9.40;100.00
55759;BME280;41678;52.126;20.664;2024-01-10T00:43:34;102146.91;;;-9.40;100.00
55759;BME280;41678;52.126;20.664;2024-01-10T00:48:54;102149.78;;;-9.37;100.00
55759;BME280;41678;52.126;20.664;2024-01-10T00:54:13;102150.97;;;-9.33;100.00
55759;BME280;41678;52.126;20.664;2024-01-10T00:59:33;102158.78;;;-9.23;100.00
55759;BME280;41678;52.126;20.664;2024-01-10T01:04:52;102154.91;;;-9.28;100.00
55759;BME280;41678;52.126;20.664;2024-01-10T01:10:11;102155.19;;;-9.25;100.00
55759;BME280;41678;52.126;20.664;2024-01-10T01:15:31;102171.41;;;-9.25;100.00
55759;BME280;41678;52.126;20.664;2024-01-10T01:20:51;102165.56;;;-9.23;100.00
55759;BME280;41678;52.126;20.664;2024-01-10T01:26:10;102167.94;;;-9.16;100.00
55759;BME280;41678;52.126;20.664;2024-01-10T01:31:30;102158.50;;;-9.17;100.00
55759;BME280;41678;52.126;20.664;2024-01-10T01:36:50;102143.78;;;-9.20;100.00
55759;BME280;41678;52.126;20.664;2024-01-10T01:42:11;102146.66;;;-9.17;100.00
55759;BME280;41678;52.126;20.664;2024-01-10T01:47:31;102140.47;;;-9.19;100.00
55759;BME280;41678;52.126;20.664;2024-01-10T01:52:51;102128.47;;;-9.20;100.00
55759;BME280;41678;52.126;20.664;2024-01-10T01:58:11;102126.81;;;-9.19;100.00
55759;BME280;41678;52.126;20.664;2024-01-10T02:03:32;102123.81;;;-9.24;100.00
55759;BME280;41678;52.126;20.664;2024-01-10T02:08:51;102120.38;;;-9.25;100.00
55759;BME280;41678;52.126;20.664;2024-01-10T02:14:12;102119.47;;;-9.25;100.00
55759;BME280;41678;52.126;20.664;2024-01-10T02:19:31;102124.41;;;-9.27;100.00
55759;BME280;41678;52.126;20.664;2024-01-10T02:24:53;102122.47;;;-9.20;100.00
55759;BME280;41678;52.126;20.664;2024-01-10T02:30:13;102122.19;;;-9.23;100.00
55759;BME280;41678;52.126;20.664;2024-01-10T02:35:33;102109.84;;;-9.28;100.00
55759;BME280;41678;52.126;20.664;2024-01-10T02:40:52;102105.50;;;-9.29;100.00
55759;BME280;41678;52.126;20.664;2024-01-10T02:46:12;102101.16;;;-9.30;100.00
55759;BME280;41678;52.126;20.664;2024-01-10T02:51:32;102099.06;;;-9.34;100.00
55759;BME280;41678;52.126;20.664;2024-01-10T02:56:51;102108.50;;;-9.33;100.00
55759;BME280;41678;52.126;20.664;2024-01-10T03:02:11;102106.88;;;-9.32;100.00
55759;BME280;41678;52.126;20.664;2024-01-10T03:07:31;102101.16;;;-9.39;100.00
55759;BME280;41678;52.126;20.664;2024-01-10T03:12:50;102093.34;;;-9.40;100.00
55759;BME280;41678;52.126;20.664;2024-01-10T03:18:10;102088.22;;;-9.40;100.00
55759;BME280;41678;52.126;20.664;2024-01-10T03:23:29;102084.63;;;-9.42;100.00
55759;BME280;41678;52.126;20.664;2024-01-10T03:28:49;102067.81;;;-9.49;100.00
55759;BME280;41678;52.126;20.664;2024-01-10T03:34:09;102071.59;;;-9.45;100.00
55759;BME280;41678;52.126;20.664;2024-01-10T03:39:28;102069.63;;;-9.48;100.00
55759;BME280;41678;52.126;20.664;2024-01-10T03:44:48;102066.03;;;-9.50;100.00
55759;BME280;41678;52.126;20.664;2024-01-10T03:50:07;102045.34;;;-9.53;100.00
55759;BME280;41678;52.126;20.664;2024-01-10T03:55:27;102054.19;;;-9.49;100.00
55759;BME280;41678;52.126;20.664;2024-01-10T04:00:47;102039.94;;;-9.56;100.00
55759;BME280;41678;52.126;20.664;2024-01-10T04:06:07;102039.19;;;-9.55;100.00
55759;BME280;41678;52.126;20.664;2024-01-10T04:11:27;102039.34;;;-9.54;100.00
55759;BME280;41678;52.126;20.664;2024-01-10T04:16:46;102027.34;;;-9.55;100.00
55759;BME280;41678;52.126;20.664;2024-01-10T04:22:06;102032.44;;;-9.55;100.00
55759;BME280;41678;52.126;20.664;2024-01-10T04:27:26;102039.34;;;-9.54;100.00
55759;BME280;41678;52.126;20.664;2024-01-10T04:32:46;102035.41;;;-9.50;100.00
55759;BME280;41678;52.126;20.664;2024-01-10T04:38:05;102032.75;;;-9.51;100.00
55759;BME280;41678;52.126;20.664;2024-01-10T04:43:25;102019.22;;;-9.50;100.00
55759;BME280;41678;52.126;20.664;2024-01-10T04:48:44;102006.19;;;-9.45;100.00
55759;BME280;41678;52.126;20.664;2024-01-10T04:54:04;102013.84;;;-9.45;100.00
55759;BME280;41678;52.126;20.664;2024-01-10T04:59:24;102019.22;;;-9.42;100.00
55759;BME280;41678;52.126;20.664;2024-01-10T05:04:43;102022.22;;;-9.37;100.00
55759;BME280;41678;52.126;20.664;2024-01-10T05:10:03;102026.88;;;-9.33;100.00
55759;BME280;41678;52.126;20.664;2024-01-10T05:15:23;102021.75;;;-9.33;100.00
55759;BME280;41678;52.126;20.664;2024-01-10T05:20:43;102024.59;;;-9.30;100.00
55759;BME280;41678;52.126;20.664;2024-01-10T05:26:02;102022.34;;;-9.27;100.00
55759;BME280;41678;52.126;20.664;2024-01-10T05:31:22;102016.66;;;-9.33;100.00
55759;BME280;41678;52.126;20.664;2024-01-10T05:36:41;102034.97;;;-9.28;100.00
55759;BME280;41678;52.126;20.664;2024-01-10T05:42:00;102036.31;;;-9.23;100.00
55759;BME280;41678;52.126;20.664;2024-01-10T05:47:22;102037.22;;;-9.22;100.00
55759;BME280;41678;52.126;20.664;2024-01-10T05:52:42;102037.50;;;-9.19;100.00
55759;BME280;41678;52.126;20.664;2024-01-10T05:58:03;102033.63;;;-9.25;100.00
55759;BME280;41678;52.126;20.664;2024-01-10T06:03:22;102032.13;;;-9.22;100.00
55759;BME280;41678;52.126;20.664;2024-01-10T06:08:44;102033.63;;;-9.25;100.00
55759;BME280;41678;52.126;20.664;2024-01-10T06:14:04;102014.69;;;-9.27;100.00
55759;BME280;41678;52.126;20.664;2024-01-10T06:19:23;102003.44;;;-9.29;100.00
55759;BME280;41678;52.126;20.664;2024-01-10T06:24:44;102012.59;;;-9.31;100.00
55759;BME280;41678;52.126;20.664;2024-01-10T06:30:03;101999.56;;;-9.34;100.00
55759;BME280;41678;52.126;20.664;2024-01-10T06:35:23;102008.72;;;-9.36;100.00
55759;BME280;41678;52.126;20.664;2024-01-10T06:40:42;102008.72;;;-9.36;100.00
55759;BME280;41678;52.126;20.664;2024-01-10T06:46:04;102009.31;;;-9.39;100.00
55759;BME280;41678;52.126;20.664;2024-01-10T06:51:23;102000.75;;;-9.48;100.00
55759;BME280;41678;52.126;20.664;2024-01-10T06:56:43;102007.81;;;-9.45;100.00
55759;BME280;41678;52.126;20.664;2024-01-10T07:02:03;102015.47;;;-9.45;100.00
55759;BME280;41678;52.126;20.664;2024-01-10T07:07:23;102023.41;;;-9.42;100.00
55759;BME280;41678;52.126;20.664;2024-01-10T07:12:43;102020.56;;;-9.45;100.00
55759;BME280;41678;52.126;20.664;2024-01-10T07:18:02;102017.13;;;-9.46;100.00
55759;BME280;41678;52.126;20.664;2024-01-10T07:23:22;102024.31;;;-9.42;100.00
55759;BME280;41678;52.126;20.664;2024-01-10T07:28:45;102026.13;;;-9.41;100.00
55759;BME280;41678;52.126;20.664;2024-01-10T07:34:04;102037.97;;;-9.41;100.00
55759;BME280;41678;52.126;20.664;2024-01-10T07:39:26;102025.53;;;-9.38;100.00
55759;BME280;41678;52.126;20.664;2024-01-10T07:44:46;102018.94;;;-9.36;100.00
55759;BME280;41678;52.126;20.664;2024-01-10T07:50:06;102016.19;;;-9.29;100.00
55759;BME280;41678;52.126;20.664;2024-01-10T07:55:26;102023.09;;;-9.28;100.00
55759;BME280;41678;52.126;20.664;2024-01-10T08:00:49;102022.97;;;-9.20;100.00
55759;BME280;41678;52.126;20.664;2024-01-10T08:06:09;102022.19;;;-9.19;100.00
55759;BME280;41678;52.126;20.664;2024-01-10T08:11:29;102032.97;;;-9.13;100.00
55759;BME280;41678;52.126;20.664;2024-01-10T08:16:49;102034.34;;;-9.08;100.00
55759;BME280;41678;52.126;20.664;2024-01-10T08:22:08;102034.91;;;-9.02;100.00
55759;BME280;41678;52.126;20.664;2024-01-10T08:27:28;102042.44;;;-8.94;100.00
55759;BME280;41678;52.126;20.664;2024-01-10T08:32:47;102035.19;;;-8.90;100.00
55759;BME280;41678;52.126;20.664;2024-01-10T08:38:07;102020.78;;;-8.89;100.00
55759;BME280;41678;52.126;20.664;2024-01-10T08:43:29;102030.53;;;-8.85;100.00
55759;BME280;41678;52.126;20.664;2024-01-10T08:48:49;102031.69;;;-8.73;100.00
55759;BME280;41678;52.126;20.664;2024-01-10T08:54:09;102028.66;;;-8.69;100.00
55759;BME280;41678;52.126;20.664;2024-01-10T08:59:29;102033.13;;;-8.57;100.00
55759;BME280;41678;52.126;20.664;2024-01-10T09:04:49;102028.59;;;-8.51;100.00
55759;BME280;41678;52.126;20.664;2024-01-10T09:10:08;102017.72;;;-8.48;100.00
55759;BME280;41678;52.126;20.664;2024-01-10T09:15:28;102004.16;;;-8.39;100.00
55759;BME280;41678;52.126;20.664;2024-01-10T09:20:48;102005.44;;;-8.25;100.00
55759;BME280;41678;52.126;20.664;2024-01-10T09:26:07;101995.81;;;-8.27;100.00
55759;BME280;41678;52.126;20.664;2024-01-10T09:31:28;102010.44;;;-8.07;100.00
55759;BME280;41678;52.126;20.664;2024-01-10T09:36:48;102008.84;;;-7.96;100.00
55759;BME280;41678;52.126;20.664;2024-01-10T09:42:08;102024.28;;;-7.86;100.00
55759;BME280;41678;52.126;20.664;2024-01-10T09:47:27;102031.25;;;-7.74;100.00
55759;BME280;41678;52.126;20.664;2024-01-10T09:53:05;102003.53;;;-7.70;100.00
55759;BME280;41678;52.126;20.664;2024-01-10T09:58:28;102020.00;;;-7.57;100.00
55759;BME280;41678;52.126;20.664;2024-01-10T10:03:49;102027.25;;;-7.43;100.00
55759;BME280;41678;52.126;20.664;2024-01-10T10:09:10;102028.44;;;-7.39;100.00
55759;BME280;41678;52.126;20.664;2024-01-10T10:14:30;102027.03;;;-7.35;100.00
55759;BME280;41678;52.126;20.664;2024-01-10T10:19:49;102025.69;;;-7.21;100.00
55759;BME280;41678;52.126;20.664;2024-01-10T10:25:09;102019.06;;;-7.19;100.00
55759;BME280;41678;52.126;20.664;2024-01-10T10:30:31;102036.69;;;-7.03;100.00
55759;BME280;41678;52.126;20.664;2024-01-10T10:35:51;102017.13;;;-6.92;100.00
55759;BME280;41678;52.126;20.664;2024-01-10T10:41:10;102008.41;;;-6.84;100.00
55759;BME280;41678;52.126;20.664;2024-01-10T10:46:32;101999.75;;;-6.76;100.00
55759;BME280;41678;52.126;20.664;2024-01-10T10:51:52;101988.78;;;-6.64;100.00
55759;BME280;41678;52.126;20.664;2024-01-10T10:57:16;101973.91;;;-6.58;100.00
55759;BME280;41678;52.126;20.664;2024-01-10T11:02:37;101949.84;;;-6.50;100.00
55759;BME280;41678;52.126;20.664;2024-01-10T11:07:58;101947.25;;;-6.40;100.00
55759;BME280;41678;52.126;20.664;2024-01-10T11:19:06;101966.25;;;-6.27;100.00
55759;BME280;41678;52.126;20.664;2024-01-10T11:24:31;101944.97;;;-6.26;100.00
55759;BME280;41678;52.126;20.664;2024-01-10T11:29:51;101936.25;;;-6.18;100.00
55759;BME280;41678;52.126;20.664;2024-01-10T11:35:18;101932.38;;;-6.02;100.00
55759;BME280;41678;52.126;20.664;2024-01-10T11:40:47;101931.06;;;-5.97;100.00
55759;BME280;41678;52.126;20.664;2024-01-10T11:46:10;101924.00;;;-6.00;100.00
55759;BME280;41678;52.126;20.664;2024-01-10T11:51:32;101924.75;;;-5.80;100.00
55759;BME280;41678;52.126;20.664;2024-01-10T11:56:51;101918.06;;;-5.78;100.00
55759;BME280;41678;52.126;20.664;2024-01-10T12:02:13;101901.25;;;-5.74;100.00
55759;BME280;41678;52.126;20.664;2024-01-10T12:07:33;101900.47;;;-5.73;100.00
55759;BME280;41678;52.126;20.664;2024-01-10T12:12:53;101895.81;;;-5.67;100.00
55759;BME280;41678;52.126;20.664;2024-01-10T12:18:14;101891.06;;;-5.62;100.00
55759;BME280;41678;52.126;20.664;2024-01-10T12:23:33;101890.00;;;-5.54;100.00
55759;BME280;41678;52.126;20.664;2024-01-10T12:28:58;101896.00;;;-5.43;100.00
55759;BME280;41678;52.126;20.664;2024-01-10T12:34:17;101893.06;;;-5.48;100.00
55759;BME280;41678;52.126;20.664;2024-01-10T12:39:37;101886.06;;;-5.38;100.00
55759;BME280;41678;52.126;20.664;2024-01-10T12:44:57;101893.03;;;-5.37;100.00
55759;BME280;41678;52.126;20.664;2024-01-10T12:50:16;101895.44;;;-5.29;100.00
55759;BME280;41678;52.126;20.664;2024-01-10T12:55:36;101890.03;;;-5.32;100.00
55759;BME280;41678;52.126;20.664;2024-01-10T13:00:56;101885.78;;;-5.31;100.00
55759;BME280;41678;52.126;20.664;2024-01-10T13:06:17;101891.75;;;-5.20;100.00
55759;BME280;41678;52.126;20.664;2024-01-10T13:11:38;101886.94;;;-5.28;100.00
55759;BME280;41678;52.126;20.664;2024-01-10T13:16:58;101868.59;;;-5.32;100.00
55759;BME280;41678;52.126;20.664;2024-01-10T13:22:17;101871.78;;;-5.24;100.00
55759;BME280;41678;52.126;20.664;2024-01-10T13:27:38;101875.47;;;-5.21;100.00
55759;BME280;41678;52.126;20.664;2024-01-10T13:32:57;101879.16;;;-5.17;100.00
55759;BME280;41678;52.126;20.664;2024-01-10T13:38:17;101861.88;;;-5.20;100.00
55759;BME280;41678;52.126;20.664;2024-01-10T13:43:37;101852.47;;;-5.19;100.00
55759;BME280;41678;52.126;20.664;2024-01-10T13:48:59;101857.25;;;-5.24;100.00
55759;BME280;41678;52.126;20.664;2024-01-10T13:54:20;101842.50;;;-5.27;100.00
55759;BME280;41678;52.126;20.664;2024-01-10T13:59:41;101847.75;;;-5.25;100.00
55759;BME280;41678;52.126;20.664;2024-01-10T14:05:00;101840.53;;;-5.19;100.00
55759;BME280;41678;52.126;20.664;2024-01-10T14:10:24;101830.69;;;-5.24;100.00
55759;BME280;41678;52.126;20.664;2024-01-10T14:15:44;101825.81;;;-5.32;100.00
55759;BME280;41678;52.126;20.664;2024-01-10T14:21:04;101819.94;;;-5.31;100.00
55759;BME280;41678;52.126;20.664;2024-01-10T14:26:24;101823.25;;;-5.32;100.00
55759;BME280;41678;52.126;20.664;2024-01-10T14:31:45;101813.44;;;-5.37;100.00
55759;BME280;41678;52.126;20.664;2024-01-10T14:37:05;101811.38;;;-5.42;100.00
55759;BME280;41678;52.126;20.664;2024-01-10T14:42:25;101806.00;;;-5.45;100.00
55759;BME280;41678;52.126;20.664;2024-01-10T14:47:45;101814.13;;;-5.50;100.00
55759;BME280;41678;52.126;20.664;2024-01-10T14:53:05;101803.00;;;-5.51;100.00
55759;BME280;41678;52.126;20.664;2024-01-10T14:58:24;101796.34;;;-5.59;100.00
55759;BME280;41678;52.126;20.664;2024-01-10T15:03:44;101798.31;;;-5.67;100.00
55759;BME280;41678;52.126;20.664;2024-01-10T15:09:04;101795.75;;;-5.67;100.00
55759;BME280;41678;52.126;20.664;2024-01-10T15:14:24;101779.38;;;-5.79;100.00
55759;BME280;41678;52.126;20.664;2024-01-10T15:19:44;101781.16;;;-5.78;100.00
55759;BME280;41678;52.126;20.664;2024-01-10T15:25:05;101782.63;;;-5.82;100.00
55759;BME280;41678;52.126;20.664;2024-01-10T15:30:25;101767.88;;;-5.85;100.00
55759;BME280;41678;52.126;20.664;2024-01-10T15:35:45;101756.88;;;-5.94;100.00
55759;BME280;41678;52.126;20.664;2024-01-10T15:41:06;101766.47;;;-5.91;100.00
55759;BME280;41678;52.126;20.664;2024-01-10T15:46:26;101770.22;;;-5.98;100.00
55759;BME280;41678;52.126;20.664;2024-01-10T15:51:45;101767.25;;;-5.92;100.00
55759;BME280;41678;52.126;20.664;2024-01-10T15:57:05;101754.41;;;-6.04;100.00
55759;BME280;41678;52.126;20.664;2024-01-10T16:02:25;101768.25;;;-6.02;100.00
55759;BME280;41678;52.126;20.664;2024-01-10T16:07:45;101745.69;;;-6.06;100.00
55759;BME280;41678;52.126;20.664;2024-01-10T16:13:05;101721.34;;;-6.12;100.00
55759;BME280;41678;52.126;20.664;2024-01-10T16:18:25;101721.09;;;-6.15;100.00
55759;BME280;41678;52.126;20.664;2024-01-10T16:23:44;101719.31;;;-6.16;100.00
55759;BME280;41678;52.126;20.664;2024-01-10T16:29:03;101718.78;;;-6.12;100.00
55759;BME280;41678;52.126;20.664;2024-01-10T16:34:23;101729.66;;;-6.14;100.00
55759;BME280;41678;52.126;20.664;2024-01-10T16:39:42;101740.88;;;-6.24;100.00
55759;BME280;41678;52.126;20.664;2024-01-10T16:45:02;101734.72;;;-6.26;100.00
55759;BME280;41678;52.126;20.664;2024-01-10T16:50:22;101713.44;;;-6.25;100.00
55759;BME280;41678;52.126;20.664;2024-01-10T16:55:41;101708.72;;;-6.31;100.00
55759;BME280;41678;52.126;20.664;2024-01-10T17:01:01;101701.94;;;-6.30;100.00
55759;BME280;41678;52.126;20.664;2024-01-10T17:06:21;101697.59;;;-6.31;100.00
55759;BME280;41678;52.126;20.664;2024-01-10T17:11:42;101682.47;;;-6.38;100.00
55759;BME280;41678;52.126;20.664;2024-01-10T17:17:02;101681.34;;;-6.42;100.00
55759;BME280;41678;52.126;20.664;2024-01-10T17:22:21;101680.97;;;-6.47;100.00
55759;BME280;41678;52.126;20.664;2024-01-10T17:27:41;101664.47;;;-6.50;100.00
55759;BME280;41678;52.126;20.664;2024-01-10T17:33:00;101653.97;;;-6.53;100.00
55759;BME280;41678;52.126;20.664;2024-01-10T17:38:22;101646.69;;;-6.59;100.00
55759;BME280;41678;52.126;20.664;2024-01-10T17:43:41;101644.41;;;-6.66;100.00
55759;BME280;41678;52.126;20.664;2024-01-10T17:49:01;101650.56;;;-6.64;100.00
55759;BME280;41678;52.126;20.664;2024-01-10T17:54:20;101653.63;;;-6.69;100.00
55759;BME280;41678;52.126;20.664;2024-01-10T17:59:40;101636.22;;;-6.73;100.00
55759;BME280;41678;52.126;20.664;2024-01-10T18:05:00;101641.34;;;-6.73;100.00
55759;BME280;41678;52.126;20.664;2024-01-10T18:10:20;101635.75;;;-6.79;100.00
55759;BME280;41678;52.126;20.664;2024-01-10T18:15:40;101655.84;;;-6.73;100.00
55759;BME280;41678;52.126;20.664;2024-01-10T18:21:00;101660.34;;;-6.81;100.00
55759;BME280;41678;52.126;20.664;2024-01-10T18:26:20;101652.03;;;-6.89;100.00
55759;BME280;41678;52.126;20.664;2024-01-10T18:54:12;101637.84;;;-6.95;100.00
55759;BME280;41678;52.126;20.664;2024-01-10T18:59:32;101632.97;;;-7.03;100.00
55759;BME280;41678;52.126;20.664;2024-01-10T19:04:51;101632.50;;;-7.09;100.00
55759;BME280;41678;52.126;20.664;2024-01-10T19:10:11;101622.75;;;-7.13;100.00
55759;BME280;41678;52.126;20.664;2024-01-10T19:15:31;101614.31;;;-7.12;100.00
55759;BME280;41678;52.126;20.664;2024-01-10T19:20:51;101614.31;;;-7.12;100.00
55759;BME280;41678;52.126;20.664;2024-01-10T19:26:23;101608.94;;;-7.15;100.00
55759;BME280;41678;52.126;20.664;2024-01-10T19:31:43;101600.47;;;-7.14;100.00
55759;BME280;41678;52.126;20.664;2024-01-10T19:37:03;101597.16;;;-7.13;100.00
55759;BME280;41678;52.126;20.664;2024-01-10T19:42:24;101591.78;;;-7.16;100.00
55759;BME280;41678;52.126;20.664;2024-01-10T19:47:44;101604.59;;;-7.16;100.00
55759;BME280;41678;52.126;20.664;2024-01-10T19:53:03;101601.00;;;-7.18;100.00
55759;BME280;41678;52.126;20.664;2024-01-10T19:58:23;101591.63;;;-7.07;100.00
55759;BME280;41678;52.126;20.664;2024-01-10T20:03:42;101588.84;;;-7.11;100.00
55759;BME280;41678;52.126;20.664;2024-01-10T20:09:02;101584.34;;;-7.13;100.00
55759;BME280;41678;52.126;20.664;2024-01-10T20:14:22;101572.59;;;-7.11;100.00
55759;BME280;41678;52.126;20.664;2024-01-10T20:19:42;101579.75;;;-7.17;100.00
55759;BME280;41678;52.126;20.664;2024-01-10T20:25:01;101580.16;;;-7.23;100.00
55759;BME280;41678;52.126;20.664;2024-01-10T20:30:21;101560.06;;;-7.29;100.00
55759;BME280;41678;52.126;20.664;2024-01-10T20:35:41;101560.97;;;-7.28;100.00
55759;BME280;41678;52.126;20.664;2024-01-10T20:41:01;101548.31;;;-7.27;100.00
55759;BME280;41678;52.126;20.664;2024-01-10T20:46:21;101560.06;;;-7.29;100.00
55759;BME280;41678;52.126;20.664;2024-01-10T20:51:40;101553.78;;;-7.22;100.00
55759;BME280;41678;52.126;20.664;2024-01-10T20:57:00;101545.88;;;-7.25;100.00
55759;BME280;41678;52.126;20.664;2024-01-10T21:02:20;101532.97;;;-7.27;100.00
55759;BME280;41678;52.126;20.664;2024-01-10T21:07:39;101526.06;;;-7.28;100.00
55759;BME280;41678;52.126;20.664;2024-01-10T21:12:58;101524.22;;;-7.29;100.00
55759;BME280;41678;52.126;20.664;2024-01-10T21:18:18;101520.94;;;-7.28;100.00
55759;BME280;41678;52.126;20.664;2024-01-10T21:23:38;101509.16;;;-7.26;100.00
55759;BME280;41678;52.126;20.664;2024-01-10T21:28:57;101504.03;;;-7.26;100.00
55759;BME280;41678;52.126;20.664;2024-01-10T21:34:17;101505.81;;;-7.24;100.00
55759;BME280;41678;52.126;20.664;2024-01-10T21:39:36;101499.94;;;-7.23;100.00
55759;BME280;41678;52.126;20.664;2024-01-10T21:44:55;101483.56;;;-7.26;100.00
55759;BME280;41678;52.126;20.664;2024-01-10T21:50:15;101470.22;;;-7.21;100.00
55759;BME280;41678;52.126;20.664;2024-01-10T21:55:34;101470.22;;;-7.21;100.00
55759;BME280;41678;52.126;20.664;2024-01-10T22:00:53;101487.84;;;-7.14;100.00
55759;BME280;41678;52.126;20.664;2024-01-10T22:06:13;101472.25;;;-7.17;100.00
55759;BME280;41678;52.126;20.664;2024-01-10T22:11:33;101474.56;;;-7.20;100.00
55759;BME280;41678;52.126;20.664;2024-01-10T22:16:54;101468.03;;;-7.17;100.00
55759;BME280;41678;52.126;20.664;2024-01-10T22:22:14;101460.22;;;-7.18;100.00
55759;BME280;41678;52.126;20.664;2024-01-10T22:27:34;101458.16;;;-7.12;100.00
55759;BME280;41678;52.126;20.664;2024-01-10T22:32:56;101459.69;;;-7.14;100.00
55759;BME280;41678;52.126;20.664;2024-01-10T22:38:16;101447.16;;;-7.11;100.00
55759;BME280;41678;52.126;20.664;2024-01-10T22:43:36;101433.31;;;-7.13;100.00
55759;BME280;41678;52.126;20.664;2024-01-10T22:48:55;101421.06;;;-7.17;100.00
55759;BME280;41678;52.126;20.664;2024-01-10T22:54:16;101408.16;;;-7.19;100.00
55759;BME280;41678;52.126;20.664;2024-01-10T22:59:35;101397.00;;;-7.19;100.00
55759;BME280;41678;52.126;20.664;2024-01-10T23:04:54;101382.78;;;-7.16;100.00
55759;BME280;41678;52.126;20.664;2024-01-10T23:10:14;101362.31;;;-7.16;100.00
55759;BME280;41678;52.126;20.664;2024-01-10T23:15:34;101346.16;;;-7.15;100.00
55759;BME280;41678;52.126;20.664;2024-01-10T23:20:53;101329.25;;;-7.13;100.00
55759;BME280;41678;52.126;20.664;2024-01-10T23:26:13;101313.25;;;-7.10;100.00
55759;BME280;41678;52.126;20.664;2024-01-10T23:31:33;101299.78;;;-7.07;100.00
55759;BME280;41678;52.126;20.664;2024-01-10T23:36:52;101302.47;;;-7.06;100.00
55759;BME280;41678;52.126;20.664;2024-01-10T23:42:12;101282.84;;;-7.05;100.00
55759;BME280;41678;52.126;20.664;2024-01-10T23:47:31;101261.06;;;-7.00;100.00
55759;BME280;41678;52.126;20.664;2024-01-10T23:52:51;101250.41;;;-6.94;100.00
55759;BME280;41678;52.126;20.664;2024-01-10T23:58:11;101252.06;;;-6.95;100.00
